sensor_id;sensor_type;location;lat;lon;timestamp;P1;durP1;ratioP1;P2;durP2;ratioP2
24143;SDS011;12307;50.828;6.080;2024-01-06T00:02:19;0.60;;;0.50;;
24143;SDS011;12307;50.828;6.080;2024-01-06T00:04:45;0.40;;;0.40;;
24143;SDS011;12307;50.828;6.080;2024-01-06T00:07:11;0.95;;;0.50;;
24143;SDS011;12307;50.828;6.080;2024-01-06T00:09:38;0.57;;;0.45;;
24143;SDS011;12307;50.828;6.080;2024-01-06T00:12:04;1.00;;;0.50;;
24143;SDS011;12307;50.828;6.080;2024-01-06T00:14:32;0.65;;;0.50;;
24143;SDS011;12307;50.828;6.080;2024-01-06T00:16:58;0.40;;;0.40;;
24143;SDS011;12307;50.828;6.080;2024-01-06T00:19:23;0.98;;;0.60;;
24143;SDS011;12307;50.828;6.080;2024-01-06T00:21:49;0.60;;;0.50;;
24143;SDS011;12307;50.828;6.080;2024-01-06T00:24:15;1.42;;;0.60;;
24143;SDS011;12307;50.828;6.080;2024-01-06T00:26:40;0.57;;;0.40;;
24143;SDS011;12307;50.828;6.080;2024-01-06T00:29:06;0.65;;;0.50;;
24143;SDS011;12307;50.828;6.080;2024-01-06T00:31:33;0.52;;;0.52;;
24143;SDS011;12307;50.828;6.080;2024-01-06T00:33:59;1.00;;;0.50;;
24143;SDS011;12307;50.828;6.080;2024-01-06T00:36:24;0.50;;;0.40;;
24143;SDS011;12307;50.828;6.080;2024-01-06T00:38:50;0.65;;;0.50;;
24143;SDS011;12307;50.828;6.080;2024-01-06T00:41:16;0.65;;;0.55;;
24143;SDS011;12307;50.828;6.080;2024-01-06T00:43:42;0.80;;;0.63;;
24143;SDS011;12307;50.828;6.080;2024-01-06T00:46:07;0.77;;;0.40;;
24143;SDS011;12307;50.828;6.080;2024-01-06T00:48:35;0.63;;;0.52;;
24143;SDS011;12307;50.828;6.080;2024-01-06T00:51:00;0.60;;;0.60;;
24143;SDS011;12307;50.828;6.080;2024-01-06T00:53:26;0.65;;;0.45;;
24143;SDS011;12307;50.828;6.080;2024-01-06T00:55:52;0.63;;;0.60;;
24143;SDS011;12307;50.828;6.080;2024-01-06T00:58:18;0.52;;;0.50;;
24143;SDS011;12307;50.828;6.080;2024-01-06T01:00:43;0.70;;;0.60;;
24143;SDS011;12307;50.828;6.080;2024-01-06T01:03:09;0.77;;;0.57;;
24143;SDS011;12307;50.828;6.080;2024-01-06T01:05:36;0.50;;;0.50;;
24143;SDS011;12307;50.828;6.080;2024-01-06T01:08:02;0.65;;;0.52;;
24143;SDS011;12307;50.828;6.080;2024-01-06T01:10:28;0.77;;;0.55;;
24143;SDS011;12307;50.828;6.080;2024-01-06T01:12:54;0.70;;;0.60;;
24143;SDS011;12307;50.828;6.080;2024-01-06T01:15:19;0.60;;;0.60;;
24143;SDS011;12307;50.828;6.080;2024-01-06T01:17:45;0.70;;;0.50;;
24143;SDS011;12307;50.828;6.080;2024-01-06T01:20:11;1.02;;;0.60;;
24143;SDS011;12307;50.828;6.080;2024-01-06T01:22:38;0.98;;;0.60;;
24143;SDS011;12307;50.828;6.080;2024-01-06T01:25:04;1.30;;;0.63;;
24143;SDS011;12307;50.828;6.080;2024-01-06T01:27:32;0.85;;;0.57;;
24143;SDS011;12307;50.828;6.080;2024-01-06T01:29:58;0.63;;;0.50;;
24143;SDS011;12307;50.828;6.080;2024-01-06T01:32:24;0.50;;;0.50;;
24143;SDS011;12307;50.828;6.080;2024-01-06T01:34:50;0.90;;;0.70;;
24143;SDS011;12307;50.828;6.080;2024-01-06T01:37:15;0.60;;;0.60;;
24143;SDS011;12307;50.828;6.080;2024-01-06T01:39:43;0.75;;;0.55;;
24143;SDS011;12307;50.828;6.080;2024-01-06T01:42:09;1.10;;;0.82;;
24143;SDS011;12307;50.828;6.080;2024-01-06T01:44:34;0.50;;;0.50;;
24143;SDS011;12307;50.828;6.080;2024-01-06T01:47:00;0.90;;;0.60;;
24143;SDS011;12307;50.828;6.080;2024-01-06T01:49:26;0.60;;;0.52;;
24143;SDS011;12307;50.828;6.080;2024-01-06T01:51:52;0.52;;;0.50;;
24143;SDS011;12307;50.828;6.080;2024-01-06T01:54:18;1.02;;;0.80;;
24143;SDS011;12307;50.828;6.080;2024-01-06T01:56:45;0.93;;;0.60;;
24143;SDS011;12307;50.828;6.080;2024-01-06T01:59:11;0.60;;;0.60;;
24143;SDS011;12307;50.828;6.080;2024-01-06T02:01:38;1.20;;;0.70;;
24143;SDS011;12307;50.828;6.080;2024-01-06T02:04:04;1.23;;;0.70;;
24143;SDS011;12307;50.828;6.080;2024-01-06T02:06:30;1.10;;;0.75;;
24143;SDS011;12307;50.828;6.080;2024-01-06T02:08:55;0.60;;;0.60;;
24143;SDS011;12307;50.828;6.080;2024-01-06T02:11:21;0.95;;;0.70;;
24143;SDS011;12307;50.828;6.080;2024-01-06T02:13:49;1.08;;;0.80;;
24143;SDS011;12307;50.828;6.080;2024-01-06T02:16:15;0.52;;;0.40;;
24143;SDS011;12307;50.828;6.080;2024-01-06T02:18:40;1.25;;;0.63;;
24143;SDS011;12307;50.828;6.080;2024-01-06T02:21:07;1.20;;;0.80;;
24143;SDS011;12307;50.828;6.080;2024-01-06T02:23:34;0.43;;;0.43;;
24143;SDS011;12307;50.828;6.080;2024-01-06T02:26:01;0.77;;;0.63;;
24143;SDS011;12307;50.828;6.080;2024-01-06T02:28:27;0.90;;;0.60;;
24143;SDS011;12307;50.828;6.080;2024-01-06T02:30:53;0.50;;;0.50;;
24143;SDS011;12307;50.828;6.080;2024-01-06T02:33:19;0.40;;;0.40;;
24143;SDS011;12307;50.828;6.080;2024-01-06T02:35:45;0.50;;;0.50;;
24143;SDS011;12307;50.828;6.080;2024-01-06T02:38:10;0.40;;;0.40;;
24143;SDS011;12307;50.828;6.080;2024-01-06T02:40:37;0.55;;;0.52;;
24143;SDS011;12307;50.828;6.080;2024-01-06T02:43:03;0.50;;;0.50;;
24143;SDS011;12307;50.828;6.080;2024-01-06T02:45:29;0.82;;;0.45;;
24143;SDS011;12307;50.828;6.080;2024-01-06T02:47:55;0.70;;;0.60;;
24143;SDS011;12307;50.828;6.080;2024-01-06T02:50:21;0.60;;;0.60;;
24143;SDS011;12307;50.828;6.080;2024-01-06T02:52:47;1.33;;;0.50;;
24143;SDS011;12307;50.828;6.080;2024-01-06T02:55:13;0.50;;;0.50;;
24143;SDS011;12307;50.828;6.080;2024-01-06T02:57:40;0.50;;;0.50;;
24143;SDS011;12307;50.828;6.080;2024-01-06T03:00:06;1.77;;;0.50;;
24143;SDS011;12307;50.828;6.080;2024-01-06T03:02:33;0.70;;;0.60;;
24143;SDS011;12307;50.828;6.080;2024-01-06T03:05:00;1.08;;;0.60;;
24143;SDS011;12307;50.828;6.080;2024-01-06T03:07:26;0.45;;;0.45;;
24143;SDS011;12307;50.828;6.080;2024-01-06T03:09:52;0.43;;;0.43;;
24143;SDS011;12307;50.828;6.080;2024-01-06T03:12:18;0.85;;;0.60;;
24143;SDS011;12307;50.828;6.080;2024-01-06T03:14:45;1.02;;;0.57;;
24143;SDS011;12307;50.828;6.080;2024-01-06T03:17:10;0.65;;;0.50;;
24143;SDS011;12307;50.828;6.080;2024-01-06T03:19:36;0.60;;;0.50;;
24143;SDS011;12307;50.828;6.080;2024-01-06T03:22:02;1.45;;;0.60;;
24143;SDS011;12307;50.828;6.080;2024-01-06T03:24:29;1.10;;;0.55;;
24143;SDS011;12307;50.828;6.080;2024-01-06T03:26:56;1.00;;;0.60;;
24143;SDS011;12307;50.828;6.080;2024-01-06T03:29:22;0.55;;;0.50;;
24143;SDS011;12307;50.828;6.080;2024-01-06T03:31:49;0.70;;;0.40;;
24143;SDS011;12307;50.828;6.080;2024-01-06T03:34:14;0.73;;;0.47;;
24143;SDS011;12307;50.828;6.080;2024-01-06T03:36:40;0.60;;;0.40;;
24143;SDS011;12307;50.828;6.080;2024-01-06T03:39:06;0.70;;;0.70;;
24143;SDS011;12307;50.828;6.080;2024-01-06T03:41:32;0.80;;;0.70;;
24143;SDS011;12307;50.828;6.080;2024-01-06T03:43:58;1.15;;;0.50;;
24143;SDS011;12307;50.828;6.080;2024-01-06T03:46:24;0.57;;;0.40;;
24143;SDS011;12307;50.828;6.080;2024-01-06T03:48:51;0.45;;;0.43;;
24143;SDS011;12307;50.828;6.080;2024-01-06T03:51:17;0.57;;;0.50;;
24143;SDS011;12307;50.828;6.080;2024-01-06T03:53:42;0.57;;;0.50;;
24143;SDS011;12307;50.828;6.080;2024-01-06T03:56:08;0.30;;;0.30;;
24143;SDS011;12307;50.828;6.080;2024-01-06T03:58:34;0.57;;;0.40;;
24143;SDS011;12307;50.828;6.080;2024-01-06T04:01:00;0.52;;;0.50;;
24143;SDS011;12307;50.828;6.080;2024-01-06T04:03:26;0.50;;;0.50;;
24143;SDS011;12307;50.828;6.080;2024-01-06T04:05:53;0.77;;;0.45;;
24143;SDS011;12307;50.828;6.080;2024-01-06T04:08:19;0.43;;;0.40;;
24143;SDS011;12307;50.828;6.080;2024-01-06T04:10:44;0.60;;;0.55;;
24143;SDS011;12307;50.828;6.080;2024-01-06T04:13:10;0.60;;;0.50;;
24143;SDS011;12307;50.828;6.080;2024-01-06T04:15:36;0.50;;;0.40;;
24143;SDS011;12307;50.828;6.080;2024-01-06T04:18:02;0.63;;;0.47;;
24143;SDS011;12307;50.828;6.080;2024-01-06T04:20:29;0.47;;;0.47;;
24143;SDS011;12307;50.828;6.080;2024-01-06T04:22:56;0.50;;;0.50;;
24143;SDS011;12307;50.828;6.080;2024-01-06T04:25:22;0.80;;;0.70;;
24143;SDS011;12307;50.828;6.080;2024-01-06T04:27:48;0.60;;;0.60;;
24143;SDS011;12307;50.828;6.080;2024-01-06T04:30:15;0.55;;;0.50;;
24143;SDS011;12307;50.828;6.080;2024-01-06T04:32:41;0.88;;;0.60;;
24143;SDS011;12307;50.828;6.080;2024-01-06T04:35:07;0.45;;;0.40;;
24143;SDS011;12307;50.828;6.080;2024-01-06T04:37:33;0.77;;;0.60;;
24143;SDS011;12307;50.828;6.080;2024-01-06T04:40:01;0.50;;;0.50;;
24143;SDS011;12307;50.828;6.080;2024-01-06T04:42:27;0.60;;;0.50;;
24143;SDS011;12307;50.828;6.080;2024-01-06T04:44:53;0.52;;;0.50;;
24143;SDS011;12307;50.828;6.080;2024-01-06T04:47:19;1.00;;;0.50;;
24143;SDS011;12307;50.828;6.080;2024-01-06T04:49:45;0.50;;;0.50;;
24143;SDS011;12307;50.828;6.080;2024-01-06T04:52:10;0.52;;;0.52;;
24143;SDS011;12307;50.828;6.080;2024-01-06T04:54:36;0.50;;;0.50;;
24143;SDS011;12307;50.828;6.080;2024-01-06T04:57:04;0.90;;;0.60;;
24143;SDS011;12307;50.828;6.080;2024-01-06T04:59:29;0.68;;;0.60;;
24143;SDS011;12307;50.828;6.080;2024-01-06T05:01:56;0.65;;;0.63;;
24143;SDS011;12307;50.828;6.080;2024-01-06T05:04:22;0.90;;;0.68;;
24143;SDS011;12307;50.828;6.080;2024-01-06T05:06:48;1.00;;;0.60;;
24143;SDS011;12307;50.828;6.080;2024-01-06T05:09:15;0.60;;;0.60;;
24143;SDS011;12307;50.828;6.080;2024-01-06T05:11:41;1.00;;;0.60;;
24143;SDS011;12307;50.828;6.080;2024-01-06T05:14:10;0.70;;;0.60;;
24143;SDS011;12307;50.828;6.080;2024-01-06T05:16:35;0.85;;;0.68;;
24143;SDS011;12307;50.828;6.080;2024-01-06T05:19:01;0.88;;;0.60;;
24143;SDS011;12307;50.828;6.080;2024-01-06T05:21:27;0.73;;;0.60;;
24143;SDS011;12307;50.828;6.080;2024-01-06T05:23:53;0.80;;;0.60;;
24143;SDS011;12307;50.828;6.080;2024-01-06T05:26:18;1.00;;;0.80;;
24143;SDS011;12307;50.828;6.080;2024-01-06T05:28:44;0.63;;;0.60;;
24143;SDS011;12307;50.828;6.080;2024-01-06T05:31:11;0.70;;;0.70;;
24143;SDS011;12307;50.828;6.080;2024-01-06T05:33:37;0.93;;;0.68;;
24143;SDS011;12307;50.828;6.080;2024-01-06T05:36:03;0.73;;;0.70;;
24143;SDS011;12307;50.828;6.080;2024-01-06T05:38:29;0.70;;;0.70;;
24143;SDS011;12307;50.828;6.080;2024-01-06T05:40:55;0.60;;;0.60;;
24143;SDS011;12307;50.828;6.080;2024-01-06T05:43:21;0.77;;;0.77;;
24143;SDS011;12307;50.828;6.080;2024-01-06T05:45:46;1.15;;;0.70;;
24143;SDS011;12307;50.828;6.080;2024-01-06T05:48:14;0.70;;;0.70;;
24143;SDS011;12307;50.828;6.080;2024-01-06T05:50:39;0.82;;;0.65;;
24143;SDS011;12307;50.828;6.080;2024-01-06T05:53:06;0.70;;;0.70;;
24143;SDS011;12307;50.828;6.080;2024-01-06T05:55:32;0.57;;;0.55;;
24143;SDS011;12307;50.828;6.080;2024-01-06T05:57:57;0.88;;;0.80;;
24143;SDS011;12307;50.828;6.080;2024-01-06T06:00:23;0.70;;;0.70;;
24143;SDS011;12307;50.828;6.080;2024-01-06T06:02:50;0.75;;;0.60;;
24143;SDS011;12307;50.828;6.080;2024-01-06T06:05:17;1.05;;;0.63;;
24143;SDS011;12307;50.828;6.080;2024-01-06T06:07:42;0.75;;;0.60;;
24143;SDS011;12307;50.828;6.080;2024-01-06T06:10:08;0.90;;;0.70;;
24143;SDS011;12307;50.828;6.080;2024-01-06T06:12:35;0.50;;;0.50;;
24143;SDS011;12307;50.828;6.080;2024-01-06T06:15:01;0.90;;;0.80;;
24143;SDS011;12307;50.828;6.080;2024-01-06T06:17:28;1.00;;;0.70;;
24143;SDS011;12307;50.828;6.080;2024-01-06T06:19:54;1.02;;;0.70;;
24143;SDS011;12307;50.828;6.080;2024-01-06T06:22:23;0.70;;;0.70;;
24143;SDS011;12307;50.828;6.080;2024-01-06T06:24:51;0.70;;;0.68;;
24143;SDS011;12307;50.828;6.080;2024-01-06T06:27:16;1.00;;;0.70;;
24143;SDS011;12307;50.828;6.080;2024-01-06T06:29:43;0.70;;;0.70;;
24143;SDS011;12307;50.828;6.080;2024-01-06T06:32:08;0.60;;;0.60;;
24143;SDS011;12307;50.828;6.080;2024-01-06T06:34:34;0.82;;;0.70;;
24143;SDS011;12307;50.828;6.080;2024-01-06T06:37:00;0.73;;;0.70;;
24143;SDS011;12307;50.828;6.080;2024-01-06T06:39:27;0.70;;;0.60;;
24143;SDS011;12307;50.828;6.080;2024-01-06T06:41:53;0.68;;;0.57;;
24143;SDS011;12307;50.828;6.080;2024-01-06T06:44:19;0.65;;;0.60;;
24143;SDS011;12307;50.828;6.080;2024-01-06T06:46:45;0.90;;;0.75;;
24143;SDS011;12307;50.828;6.080;2024-01-06T06:49:10;0.68;;;0.60;;
24143;SDS011;12307;50.828;6.080;2024-01-06T06:51:36;1.58;;;0.60;;
24143;SDS011;12307;50.828;6.080;2024-01-06T06:54:09;0.70;;;0.60;;
24143;SDS011;12307;50.828;6.080;2024-01-06T06:56:36;0.47;;;0.47;;
24143;SDS011;12307;50.828;6.080;2024-01-06T06:59:02;0.70;;;0.55;;
24143;SDS011;12307;50.828;6.080;2024-01-06T07:01:28;0.65;;;0.55;;
24143;SDS011;12307;50.828;6.080;2024-01-06T07:03:54;0.60;;;0.60;;
24143;SDS011;12307;50.828;6.080;2024-01-06T07:06:19;0.93;;;0.52;;
24143;SDS011;12307;50.828;6.080;2024-01-06T07:08:45;0.60;;;0.60;;
24143;SDS011;12307;50.828;6.080;2024-01-06T07:11:11;0.93;;;0.77;;
24143;SDS011;12307;50.828;6.080;2024-01-06T07:13:41;0.88;;;0.60;;
24143;SDS011;12307;50.828;6.080;2024-01-06T07:16:07;0.55;;;0.52;;
24143;SDS011;12307;50.828;6.080;2024-01-06T07:18:32;0.95;;;0.70;;
24143;SDS011;12307;50.828;6.080;2024-01-06T07:20:58;0.57;;;0.57;;
24143;SDS011;12307;50.828;6.080;2024-01-06T07:23:24;0.50;;;0.50;;
24143;SDS011;12307;50.828;6.080;2024-01-06T07:25:50;1.00;;;0.70;;
24143;SDS011;12307;50.828;6.080;2024-01-06T07:28:15;0.80;;;0.57;;
24143;SDS011;12307;50.828;6.080;2024-01-06T07:30:43;0.68;;;0.60;;
24143;SDS011;12307;50.828;6.080;2024-01-06T07:33:09;0.77;;;0.50;;
24143;SDS011;12307;50.828;6.080;2024-01-06T07:35:36;0.70;;;0.60;;
24143;SDS011;12307;50.828;6.080;2024-01-06T07:38:02;0.43;;;0.40;;
24143;SDS011;12307;50.828;6.080;2024-01-06T07:40:28;0.60;;;0.60;;
24143;SDS011;12307;50.828;6.080;2024-01-06T07:42:54;0.50;;;0.50;;
24143;SDS011;12307;50.828;6.080;2024-01-06T07:45:20;0.40;;;0.40;;
24143;SDS011;12307;50.828;6.080;2024-01-06T07:47:47;0.80;;;0.50;;
24143;SDS011;12307;50.828;6.080;2024-01-06T07:50:12;0.50;;;0.50;;
24143;SDS011;12307;50.828;6.080;2024-01-06T07:52:38;0.50;;;0.50;;
24143;SDS011;12307;50.828;6.080;2024-01-06T07:55:04;0.85;;;0.63;;
24143;SDS011;12307;50.828;6.080;2024-01-06T07:57:30;0.68;;;0.60;;
24143;SDS011;12307;50.828;6.080;2024-01-06T07:59:56;0.55;;;0.50;;
24143;SDS011;12307;50.828;6.080;2024-01-06T08:02:21;0.50;;;0.50;;
24143;SDS011;12307;50.828;6.080;2024-01-06T08:04:48;0.60;;;0.60;;
24143;SDS011;12307;50.828;6.080;2024-01-06T08:07:14;0.40;;;0.40;;
24143;SDS011;12307;50.828;6.080;2024-01-06T08:09:40;0.60;;;0.47;;
24143;SDS011;12307;50.828;6.080;2024-01-06T08:12:06;0.50;;;0.40;;
24143;SDS011;12307;50.828;6.080;2024-01-06T08:14:32;0.63;;;0.55;;
24143;SDS011;12307;50.828;6.080;2024-01-06T08:16:57;0.73;;;0.70;;
24143;SDS011;12307;50.828;6.080;2024-01-06T08:19:23;0.50;;;0.50;;
24143;SDS011;12307;50.828;6.080;2024-01-06T08:21:50;0.40;;;0.40;;
24143;SDS011;12307;50.828;6.080;2024-01-06T08:24:16;0.60;;;0.60;;
24143;SDS011;12307;50.828;6.080;2024-01-06T08:26:42;0.60;;;0.60;;
24143;SDS011;12307;50.828;6.080;2024-01-06T08:29:07;0.70;;;0.50;;
24143;SDS011;12307;50.828;6.080;2024-01-06T08:31:33;0.60;;;0.50;;
24143;SDS011;12307;50.828;6.080;2024-01-06T08:33:59;0.63;;;0.55;;
24143;SDS011;12307;50.828;6.080;2024-01-06T08:36:24;0.60;;;0.60;;
24143;SDS011;12307;50.828;6.080;2024-01-06T08:38:52;0.70;;;0.60;;
24143;SDS011;12307;50.828;6.080;2024-01-06T08:41:17;0.50;;;0.50;;
24143;SDS011;12307;50.828;6.080;2024-01-06T08:43:43;0.40;;;0.40;;
24143;SDS011;12307;50.828;6.080;2024-01-06T08:46:09;0.43;;;0.43;;
24143;SDS011;12307;50.828;6.080;2024-01-06T08:48:35;1.23;;;0.60;;
24143;SDS011;12307;50.828;6.080;2024-01-06T08:51:00;0.60;;;0.60;;
24143;SDS011;12307;50.828;6.080;2024-01-06T08:53:26;0.40;;;0.40;;
24143;SDS011;12307;50.828;6.080;2024-01-06T08:55:53;0.60;;;0.50;;
24143;SDS011;12307;50.828;6.080;2024-01-06T08:58:19;0.70;;;0.50;;
24143;SDS011;12307;50.828;6.080;2024-01-06T09:00:45;0.40;;;0.40;;
24143;SDS011;12307;50.828;6.080;2024-01-06T09:03:10;0.30;;;0.30;;
24143;SDS011;12307;50.828;6.080;2024-01-06T09:05:37;0.60;;;0.60;;
24143;SDS011;12307;50.828;6.080;2024-01-06T09:08:04;0.47;;;0.40;;
24143;SDS011;12307;50.828;6.080;2024-01-06T09:10:30;0.40;;;0.40;;
24143;SDS011;12307;50.828;6.080;2024-01-06T09:12:58;0.63;;;0.40;;
24143;SDS011;12307;50.828;6.080;2024-01-06T09:15:23;0.65;;;0.40;;
24143;SDS011;12307;50.828;6.080;2024-01-06T09:17:49;0.57;;;0.45;;
24143;SDS011;12307;50.828;6.080;2024-01-06T09:20:15;0.50;;;0.40;;
24143;SDS011;12307;50.828;6.080;2024-01-06T09:22:42;0.88;;;0.40;;
24143;SDS011;12307;50.828;6.080;2024-01-06T09:25:08;0.60;;;0.45;;
24143;SDS011;12307;50.828;6.080;2024-01-06T09:27:33;0.35;;;0.30;;
24143;SDS011;12307;50.828;6.080;2024-01-06T09:30:00;0.30;;;0.30;;
24143;SDS011;12307;50.828;6.080;2024-01-06T09:32:26;0.40;;;0.40;;
24143;SDS011;12307;50.828;6.080;2024-01-06T09:34:52;0.40;;;0.40;;
24143;SDS011;12307;50.828;6.080;2024-01-06T09:37:17;0.30;;;0.30;;
24143;SDS011;12307;50.828;6.080;2024-01-06T09:39:43;0.50;;;0.50;;
24143;SDS011;12307;50.828;6.080;2024-01-06T09:42:09;0.32;;;0.32;;
24143;SDS011;12307;50.828;6.080;2024-01-06T09:44:36;0.43;;;0.43;;
24143;SDS011;12307;50.828;6.080;2024-01-06T09:47:04;0.40;;;0.30;;
24143;SDS011;12307;50.828;6.080;2024-01-06T09:49:31;0.75;;;0.40;;
24143;SDS011;12307;50.828;6.080;2024-01-06T09:51:59;0.55;;;0.40;;
24143;SDS011;12307;50.828;6.080;2024-01-06T09:54:28;0.45;;;0.40;;
24143;SDS011;12307;50.828;6.080;2024-01-06T09:56:58;0.70;;;0.40;;
24143;SDS011;12307;50.828;6.080;2024-01-06T09:59:24;0.45;;;0.40;;
24143;SDS011;12307;50.828;6.080;2024-01-06T10:01:50;0.50;;;0.40;;
24143;SDS011;12307;50.828;6.080;2024-01-06T10:04:19;0.60;;;0.60;;
24143;SDS011;12307;50.828;6.080;2024-01-06T10:06:45;0.47;;;0.38;;
24143;SDS011;12307;50.828;6.080;2024-01-06T10:09:10;0.30;;;0.30;;
24143;SDS011;12307;50.828;6.080;2024-01-06T10:11:37;0.82;;;0.30;;
24143;SDS011;12307;50.828;6.080;2024-01-06T10:14:06;0.30;;;0.30;;
24143;SDS011;12307;50.828;6.080;2024-01-06T10:16:32;0.50;;;0.30;;
24143;SDS011;12307;50.828;6.080;2024-01-06T10:18:59;0.35;;;0.35;;
24143;SDS011;12307;50.828;6.080;2024-01-06T10:21:26;0.30;;;0.30;;
24143;SDS011;12307;50.828;6.080;2024-01-06T10:23:53;0.30;;;0.30;;
24143;SDS011;12307;50.828;6.080;2024-01-06T10:26:19;0.60;;;0.50;;
24143;SDS011;12307;50.828;6.080;2024-01-06T10:28:45;0.68;;;0.50;;
24143;SDS011;12307;50.828;6.080;2024-01-06T10:31:12;0.80;;;0.40;;
24143;SDS011;12307;50.828;6.080;2024-01-06T10:33:38;0.43;;;0.30;;
24143;SDS011;12307;50.828;6.080;2024-01-06T10:36:05;0.50;;;0.50;;
24143;SDS011;12307;50.828;6.080;2024-01-06T10:38:35;0.30;;;0.30;;
24143;SDS011;12307;50.828;6.080;2024-01-06T10:41:01;0.35;;;0.30;;
24143;SDS011;12307;50.828;6.080;2024-01-06T10:43:32;0.32;;;0.32;;
24143;SDS011;12307;50.828;6.080;2024-01-06T10:46:02;0.52;;;0.40;;
24143;SDS011;12307;50.828;6.080;2024-01-06T10:48:30;0.32;;;0.30;;
24143;SDS011;12307;50.828;6.080;2024-01-06T10:50:56;0.50;;;0.50;;
24143;SDS011;12307;50.828;6.080;2024-01-06T10:53:24;0.45;;;0.30;;
24143;SDS011;12307;50.828;6.080;2024-01-06T10:55:53;0.22;;;0.22;;
24143;SDS011;12307;50.828;6.080;2024-01-06T10:58:19;0.40;;;0.40;;
24143;SDS011;12307;50.828;6.080;2024-01-06T11:00:46;0.50;;;0.50;;
24143;SDS011;12307;50.828;6.080;2024-01-06T11:03:13;1.27;;;0.38;;
24143;SDS011;12307;50.828;6.080;2024-01-06T11:05:40;0.32;;;0.30;;
24143;SDS011;12307;50.828;6.080;2024-01-06T11:08:07;0.38;;;0.32;;
24143;SDS011;12307;50.828;6.080;2024-01-06T11:10:33;0.30;;;0.30;;
24143;SDS011;12307;50.828;6.080;2024-01-06T11:13:09;0.35;;;0.35;;
24143;SDS011;12307;50.828;6.080;2024-01-06T11:15:44;0.30;;;0.30;;
24143;SDS011;12307;50.828;6.080;2024-01-06T11:21:19;0.40;;;0.40;;
24143;SDS011;12307;50.828;6.080;2024-01-06T11:26:50;0.52;;;0.30;;
24143;SDS011;12307;50.828;6.080;2024-01-06T11:29:18;0.55;;;0.30;;
24143;SDS011;12307;50.828;6.080;2024-01-06T11:34:47;0.60;;;0.40;;
24143;SDS011;12307;50.828;6.080;2024-01-06T11:37:14;0.20;;;0.20;;
24143;SDS011;12307;50.828;6.080;2024-01-06T11:39:42;0.50;;;0.50;;
24143;SDS011;12307;50.828;6.080;2024-01-06T11:42:09;0.60;;;0.40;;
24143;SDS011;12307;50.828;6.080;2024-01-06T11:44:37;0.40;;;0.40;;
24143;SDS011;12307;50.828;6.080;2024-01-06T11:47:04;0.30;;;0.30;;
24143;SDS011;12307;50.828;6.080;2024-01-06T11:49:31;0.30;;;0.30;;
24143;SDS011;12307;50.828;6.080;2024-01-06T11:51:57;0.38;;;0.38;;
24143;SDS011;12307;50.828;6.080;2024-01-06T11:54:23;0.47;;;0.45;;
24143;SDS011;12307;50.828;6.080;2024-01-06T11:56:49;0.30;;;0.30;;
24143;SDS011;12307;50.828;6.080;2024-01-06T11:59:19;0.32;;;0.30;;
24143;SDS011;12307;50.828;6.080;2024-01-06T12:01:46;0.25;;;0.20;;
24143;SDS011;12307;50.828;6.080;2024-01-06T12:04:13;0.28;;;0.28;;
24143;SDS011;12307;50.828;6.080;2024-01-06T12:06:40;0.38;;;0.38;;
24143;SDS011;12307;50.828;6.080;2024-01-06T12:09:06;0.40;;;0.40;;
24143;SDS011;12307;50.828;6.080;2024-01-06T12:11:33;0.40;;;0.40;;
24143;SDS011;12307;50.828;6.080;2024-01-06T12:13:59;0.30;;;0.30;;
24143;SDS011;12307;50.828;6.080;2024-01-06T12:16:24;0.40;;;0.32;;
24143;SDS011;12307;50.828;6.080;2024-01-06T12:18:53;0.30;;;0.30;;
24143;SDS011;12307;50.828;6.080;2024-01-06T12:21:20;0.30;;;0.30;;
24143;SDS011;12307;50.828;6.080;2024-01-06T12:23:46;0.40;;;0.40;;
24143;SDS011;12307;50.828;6.080;2024-01-06T12:26:12;0.30;;;0.30;;
24143;SDS011;12307;50.828;6.080;2024-01-06T12:28:38;0.40;;;0.40;;
24143;SDS011;12307;50.828;6.080;2024-01-06T12:31:04;0.40;;;0.38;;
24143;SDS011;12307;50.828;6.080;2024-01-06T12:33:30;0.55;;;0.40;;
24143;SDS011;12307;50.828;6.080;2024-01-06T12:35:58;0.70;;;0.30;;
24143;SDS011;12307;50.828;6.080;2024-01-06T12:38:24;0.40;;;0.40;;
24143;SDS011;12307;50.828;6.080;2024-01-06T12:40:52;0.30;;;0.30;;
24143;SDS011;12307;50.828;6.080;2024-01-06T12:43:20;0.30;;;0.30;;
24143;SDS011;12307;50.828;6.080;2024-01-06T12:45:46;0.30;;;0.30;;
24143;SDS011;12307;50.828;6.080;2024-01-06T12:48:11;0.35;;;0.30;;
24143;SDS011;12307;50.828;6.080;2024-01-06T12:50:37;0.30;;;0.30;;
24143;SDS011;12307;50.828;6.080;2024-01-06T12:53:04;0.77;;;0.45;;
24143;SDS011;12307;50.828;6.080;2024-01-06T12:55:30;0.40;;;0.40;;
24143;SDS011;12307;50.828;6.080;2024-01-06T12:57:56;0.40;;;0.40;;
24143;SDS011;12307;50.828;6.080;2024-01-06T13:00:22;0.35;;;0.32;;
24143;SDS011;12307;50.828;6.080;2024-01-06T13:02:47;0.32;;;0.32;;
24143;SDS011;12307;50.828;6.080;2024-01-06T13:05:13;0.30;;;0.30;;
24143;SDS011;12307;50.828;6.080;2024-01-06T13:07:39;0.43;;;0.40;;
24143;SDS011;12307;50.828;6.080;2024-01-06T13:10:07;0.70;;;0.60;;
24143;SDS011;12307;50.828;6.080;2024-01-06T13:12:33;0.30;;;0.30;;
24143;SDS011;12307;50.828;6.080;2024-01-06T13:14:59;0.45;;;0.40;;
24143;SDS011;12307;50.828;6.080;2024-01-06T13:17:25;0.40;;;0.40;;
24143;SDS011;12307;50.828;6.080;2024-01-06T13:19:51;0.60;;;0.40;;
24143;SDS011;12307;50.828;6.080;2024-01-06T13:22:17;0.73;;;0.40;;
24143;SDS011;12307;50.828;6.080;2024-01-06T13:24:45;0.40;;;0.40;;
24143;SDS011;12307;50.828;6.080;2024-01-06T13:27:12;0.52;;;0.50;;
24143;SDS011;12307;50.828;6.080;2024-01-06T13:29:38;0.60;;;0.50;;
24143;SDS011;12307;50.828;6.080;2024-01-06T13:32:04;0.40;;;0.40;;
24143;SDS011;12307;50.828;6.080;2024-01-06T13:34:30;0.43;;;0.43;;
24143;SDS011;12307;50.828;6.080;2024-01-06T13:36:56;0.40;;;0.30;;
24143;SDS011;12307;50.828;6.080;2024-01-06T13:39:22;0.40;;;0.40;;
24143;SDS011;12307;50.828;6.080;2024-01-06T13:41:48;0.63;;;0.63;;
24143;SDS011;12307;50.828;6.080;2024-01-06T13:44:16;0.60;;;0.40;;
24143;SDS011;12307;50.828;6.080;2024-01-06T13:46:42;0.40;;;0.40;;
24143;SDS011;12307;50.828;6.080;2024-01-06T13:49:09;0.70;;;0.40;;
24143;SDS011;12307;50.828;6.080;2024-01-06T13:51:35;0.50;;;0.38;;
24143;SDS011;12307;50.828;6.080;2024-01-06T13:54:01;0.30;;;0.30;;
24143;SDS011;12307;50.828;6.080;2024-01-06T13:56:27;0.60;;;0.50;;
24143;SDS011;12307;50.828;6.080;2024-01-06T13:58:52;0.60;;;0.60;;
24143;SDS011;12307;50.828;6.080;2024-01-06T14:01:19;0.63;;;0.50;;
24143;SDS011;12307;50.828;6.080;2024-01-06T14:03:45;0.47;;;0.47;;
24143;SDS011;12307;50.828;6.080;2024-01-06T14:06:11;0.45;;;0.40;;
24143;SDS011;12307;50.828;6.080;2024-01-06T14:08:37;0.50;;;0.50;;
24143;SDS011;12307;50.828;6.080;2024-01-06T14:11:03;0.52;;;0.50;;
24143;SDS011;12307;50.828;6.080;2024-01-06T14:13:30;0.82;;;0.57;;
24143;SDS011;12307;50.828;6.080;2024-01-06T14:15:56;0.75;;;0.70;;
24143;SDS011;12307;50.828;6.080;2024-01-06T14:18:23;0.43;;;0.43;;
24143;SDS011;12307;50.828;6.080;2024-01-06T14:20:49;0.40;;;0.40;;
24143;SDS011;12307;50.828;6.080;2024-01-06T14:23:16;0.57;;;0.50;;
24143;SDS011;12307;50.828;6.080;2024-01-06T14:25:42;0.60;;;0.60;;
24143;SDS011;12307;50.828;6.080;2024-01-06T14:28:08;0.50;;;0.50;;
24143;SDS011;12307;50.828;6.080;2024-01-06T14:30:33;0.52;;;0.52;;
24143;SDS011;12307;50.828;6.080;2024-01-06T14:32:59;0.57;;;0.57;;
24143;SDS011;12307;50.828;6.080;2024-01-06T14:35:26;1.48;;;0.40;;
24143;SDS011;12307;50.828;6.080;2024-01-06T14:37:52;0.40;;;0.40;;
24143;SDS011;12307;50.828;6.080;2024-01-06T14:40:19;0.80;;;0.50;;
24143;SDS011;12307;50.828;6.080;2024-01-06T14:42:45;0.63;;;0.55;;
24143;SDS011;12307;50.828;6.080;2024-01-06T14:45:10;0.60;;;0.40;;
24143;SDS011;12307;50.828;6.080;2024-01-06T14:47:36;0.45;;;0.40;;
24143;SDS011;12307;50.828;6.080;2024-01-06T14:50:02;0.50;;;0.40;;
24143;SDS011;12307;50.828;6.080;2024-01-06T14:52:30;0.68;;;0.40;;